sensor_id;sensor_type;location;lat;lon;timestamp;P1;durP1;ratioP1;P2;durP2;ratioP2
53799;SDS011;39708;53.210;6.948;2022-11-21T00:01:15;0.60;;;0.55;;
53799;SDS011;39708;53.210;6.948;2022-11-21T00:03:43;0.52;;;0.52;;
53799;SDS011;39708;53.210;6.948;2022-11-21T00:06:09;2.60;;;0.75;;
53799;SDS011;39708;53.210;6.948;2022-11-21T00:08:34;2.50;;;1.20;;
53799;SDS011;39708;53.210;6.948;2022-11-21T00:11:00;0.75;;;0.75;;
53799;SDS011;39708;53.210;6.948;2022-11-21T00:13:26;0.57;;;0.55;;
53799;SDS011;39708;53.210;6.948;2022-11-21T00:15:51;1.95;;;1.17;;
53799;SDS011;39708;53.210;6.948;2022-11-21T00:18:17;3.60;;;1.30;;
53799;SDS011;39708;53.210;6.948;2022-11-21T00:20:43;1.35;;;0.75;;
53799;SDS011;39708;53.210;6.948;2022-11-21T00:23:08;0.60;;;0.60;;
53799;SDS011;39708;53.210;6.948;2022-11-21T00:25:35;2.65;;;1.08;;
53799;SDS011;39708;53.210;6.948;2022-11-21T00:28:01;0.63;;;0.63;;
53799;SDS011;39708;53.210;6.948;2022-11-21T00:30:27;0.40;;;0.35;;
53799;SDS011;39708;53.210;6.948;2022-11-21T00:32:53;0.40;;;0.40;;
53799;SDS011;39708;53.210;6.948;2022-11-21T00:35:19;0.98;;;0.57;;
53799;SDS011;39708;53.210;6.948;2022-11-21T00:37:44;2.10;;;0.55;;
53799;SDS011;39708;53.210;6.948;2022-11-21T00:40:12;2.45;;;1.30;;
53799;SDS011;39708;53.210;6.948;2022-11-21T00:42:38;0.98;;;0.63;;
53799;SDS011;39708;53.210;6.948;2022-11-21T00:45:04;1.52;;;1.42;;
53799;SDS011;39708;53.210;6.948;2022-11-21T00:47:30;3.65;;;1.17;;
53799;SDS011;39708;53.210;6.948;2022-11-21T00:49:56;1.20;;;0.35;;
53799;SDS011;39708;53.210;6.948;2022-11-21T00:52:21;0.10;;;0.10;;
53799;SDS011;39708;53.210;6.948;2022-11-21T00:54:47;0.22;;;0.22;;
53799;SDS011;39708;53.210;6.948;2022-11-21T00:57:12;1.33;;;0.60;;
53799;SDS011;39708;53.210;6.948;2022-11-21T00:59:38;0.68;;;0.68;;
53799;SDS011;39708;53.210;6.948;2022-11-21T01:02:04;0.98;;;0.47;;
53799;SDS011;39708;53.210;6.948;2022-11-21T01:04:30;0.40;;;0.28;;
53799;SDS011;39708;53.210;6.948;2022-11-21T01:06:56;0.10;;;0.10;;
53799;SDS011;39708;53.210;6.948;2022-11-21T01:09:22;0.10;;;0.10;;
53799;SDS011;39708;53.210;6.948;2022-11-21T01:11:47;1.27;;;0.55;;
53799;SDS011;39708;53.210;6.948;2022-11-21T01:14:13;0.50;;;0.08;;
53799;SDS011;39708;53.210;6.948;2022-11-21T01:16:39;0.10;;;0.10;;
53799;SDS011;39708;53.210;6.948;2022-11-21T01:19:04;0.75;;;0.70;;
53799;SDS011;39708;53.210;6.948;2022-11-21T01:21:30;0.63;;;0.40;;
53799;SDS011;39708;53.210;6.948;2022-11-21T01:23:59;1.00;;;0.52;;
53799;SDS011;39708;53.210;6.948;2022-11-21T01:26:27;0.68;;;0.15;;
53799;SDS011;39708;53.210;6.948;2022-11-21T01:28:54;0.57;;;0.10;;
53799;SDS011;39708;53.210;6.948;2022-11-21T01:31:23;1.10;;;0.52;;
53799;SDS011;39708;53.210;6.948;2022-11-21T01:33:50;0.55;;;0.55;;
53799;SDS011;39708;53.210;6.948;2022-11-21T01:36:18;0.38;;;0.22;;
53799;SDS011;39708;53.210;6.948;2022-11-21T01:38:49;6.82;;;0.95;;
53799;SDS011;39708;53.210;6.948;2022-11-21T01:41:17;1.38;;;0.22;;
53799;SDS011;39708;53.210;6.948;2022-11-21T01:43:48;0.70;;;0.70;;
53799;SDS011;39708;53.210;6.948;2022-11-21T01:46:15;0.22;;;0.22;;
53799;SDS011;39708;53.210;6.948;2022-11-21T01:48:53;0.98;;;0.88;;
53799;SDS011;39708;53.210;6.948;2022-11-21T01:54:28;1.50;;;1.40;;
53799;SDS011;39708;53.210;6.948;2022-11-21T01:57:00;1.13;;;1.02;;
53799;SDS011;39708;53.210;6.948;2022-11-21T01:59:38;3.30;;;1.70;;
53799;SDS011;39708;53.210;6.948;2022-11-21T02:02:24;2.35;;;1.95;;
53799;SDS011;39708;53.210;6.948;2022-11-21T02:04:53;4.40;;;1.25;;
53799;SDS011;39708;53.210;6.948;2022-11-21T02:07:21;0.90;;;0.90;;
53799;SDS011;39708;53.210;6.948;2022-11-21T02:09:50;2.28;;;1.42;;
53799;SDS011;39708;53.210;6.948;2022-11-21T02:12:31;1.55;;;1.55;;
53799;SDS011;39708;53.210;6.948;2022-11-21T02:15:02;1.10;;;0.90;;
53799;SDS011;39708;53.210;6.948;2022-11-21T02:17:28;1.83;;;0.77;;
53799;SDS011;39708;53.210;6.948;2022-11-21T02:19:55;1.10;;;0.47;;
53799;SDS011;39708;53.210;6.948;2022-11-21T02:25:05;3.58;;;1.15;;
53799;SDS011;39708;53.210;6.948;2022-11-21T02:27:36;1.08;;;0.60;;
53799;SDS011;39708;53.210;6.948;2022-11-21T02:30:03;0.65;;;0.30;;
53799;SDS011;39708;53.210;6.948;2022-11-21T02:32:32;1.25;;;1.15;;
53799;SDS011;39708;53.210;6.948;2022-11-21T02:35:00;1.48;;;1.38;;
53799;SDS011;39708;53.210;6.948;2022-11-21T02:37:26;2.22;;;1.33;;
53799;SDS011;39708;53.210;6.948;2022-11-21T02:39:52;0.75;;;0.45;;
53799;SDS011;39708;53.210;6.948;2022-11-21T02:42:30;1.77;;;1.55;;
53799;SDS011;39708;53.210;6.948;2022-11-21T02:45:09;0.30;;;0.30;;
53799;SDS011;39708;53.210;6.948;2022-11-21T02:47:42;0.38;;;0.38;;
53799;SDS011;39708;53.210;6.948;2022-11-21T02:50:14;1.85;;;1.42;;
53799;SDS011;39708;53.210;6.948;2022-11-21T02:52:44;0.45;;;0.40;;
53799;SDS011;39708;53.210;6.948;2022-11-21T02:55:10;0.10;;;0.10;;
53799;SDS011;39708;53.210;6.948;2022-11-21T02:57:37;0.30;;;0.30;;
53799;SDS011;39708;53.210;6.948;2022-11-21T03:00:04;0.60;;;0.60;;
53799;SDS011;39708;53.210;6.948;2022-11-21T03:02:30;0.10;;;0.10;;
53799;SDS011;39708;53.210;6.948;2022-11-21T03:04:56;1.13;;;0.68;;
53799;SDS011;39708;53.210;6.948;2022-11-21T03:07:22;1.05;;;0.22;;
53799;SDS011;39708;53.210;6.948;2022-11-21T03:09:47;1.27;;;0.35;;
53799;SDS011;39708;53.210;6.948;2022-11-21T03:12:13;1.00;;;0.68;;
53799;SDS011;39708;53.210;6.948;2022-11-21T03:14:38;1.45;;;1.05;;
53799;SDS011;39708;53.210;6.948;2022-11-21T03:17:04;0.85;;;0.85;;
53799;SDS011;39708;53.210;6.948;2022-11-21T03:19:30;0.60;;;0.60;;
53799;SDS011;39708;53.210;6.948;2022-11-21T03:21:55;1.35;;;1.05;;
53799;SDS011;39708;53.210;6.948;2022-11-21T03:24:21;4.97;;;1.30;;
53799;SDS011;39708;53.210;6.948;2022-11-21T03:26:47;1.92;;;1.77;;
53799;SDS011;39708;53.210;6.948;2022-11-21T03:29:12;1.85;;;1.75;;
53799;SDS011;39708;53.210;6.948;2022-11-21T03:31:38;1.65;;;0.60;;
53799;SDS011;39708;53.210;6.948;2022-11-21T03:34:04;0.55;;;0.55;;
53799;SDS011;39708;53.210;6.948;2022-11-21T03:36:30;1.40;;;1.30;;
53799;SDS011;39708;53.210;6.948;2022-11-21T03:38:56;0.70;;;0.70;;
53799;SDS011;39708;53.210;6.948;2022-11-21T03:41:25;0.50;;;0.30;;
53799;SDS011;39708;53.210;6.948;2022-11-21T03:44:12;2.53;;;2.33;;
53799;SDS011;39708;53.210;6.948;2022-11-21T03:46:38;3.17;;;1.85;;
53799;SDS011;39708;53.210;6.948;2022-11-21T03:49:06;4.50;;;1.20;;
53799;SDS011;39708;53.210;6.948;2022-11-21T03:51:32;2.05;;;0.95;;
53799;SDS011;39708;53.210;6.948;2022-11-21T03:53:58;2.38;;;1.10;;
53799;SDS011;39708;53.210;6.948;2022-11-21T03:56:24;0.47;;;0.40;;
53799;SDS011;39708;53.210;6.948;2022-11-21T03:58:50;1.17;;;1.17;;
53799;SDS011;39708;53.210;6.948;2022-11-21T04:01:16;0.70;;;0.70;;
53799;SDS011;39708;53.210;6.948;2022-11-21T04:03:42;0.73;;;0.73;;
53799;SDS011;39708;53.210;6.948;2022-11-21T04:06:09;3.95;;;0.93;;
53799;SDS011;39708;53.210;6.948;2022-11-21T04:08:36;3.38;;;2.38;;
53799;SDS011;39708;53.210;6.948;2022-11-21T04:11:02;1.73;;;1.23;;
53799;SDS011;39708;53.210;6.948;2022-11-21T04:13:27;1.13;;;0.68;;
53799;SDS011;39708;53.210;6.948;2022-11-21T04:15:53;2.13;;;1.95;;
53799;SDS011;39708;53.210;6.948;2022-11-21T04:18:19;3.17;;;2.45;;
53799;SDS011;39708;53.210;6.948;2022-11-21T04:20:45;8.50;;;1.15;;
53799;SDS011;39708;53.210;6.948;2022-11-21T04:23:10;3.05;;;1.75;;
53799;SDS011;39708;53.210;6.948;2022-11-21T04:25:36;0.70;;;0.43;;
53799;SDS011;39708;53.210;6.948;2022-11-21T04:28:02;0.82;;;0.70;;
53799;SDS011;39708;53.210;6.948;2022-11-21T04:30:28;2.42;;;1.23;;
53799;SDS011;39708;53.210;6.948;2022-11-21T04:32:54;0.35;;;0.35;;
53799;SDS011;39708;53.210;6.948;2022-11-21T04:35:21;0.22;;;0.20;;
53799;SDS011;39708;53.210;6.948;2022-11-21T04:37:47;0.52;;;0.52;;
53799;SDS011;39708;53.210;6.948;2022-11-21T04:40:14;1.70;;;0.40;;
53799;SDS011;39708;53.210;6.948;2022-11-21T04:42:43;0.75;;;0.75;;
53799;SDS011;39708;53.210;6.948;2022-11-21T04:45:10;0.55;;;0.55;;
53799;SDS011;39708;53.210;6.948;2022-11-21T04:47:41;0.20;;;0.20;;
53799;SDS011;39708;53.210;6.948;2022-11-21T04:50:09;0.52;;;0.52;;
53799;SDS011;39708;53.210;6.948;2022-11-21T04:52:36;0.68;;;0.68;;
53799;SDS011;39708;53.210;6.948;2022-11-21T04:55:02;7.72;;;1.08;;
53799;SDS011;39708;53.210;6.948;2022-11-21T04:57:28;4.60;;;1.92;;
53799;SDS011;39708;53.210;6.948;2022-11-21T04:59:54;2.08;;;1.88;;
53799;SDS011;39708;53.210;6.948;2022-11-21T05:02:20;3.10;;;2.30;;
53799;SDS011;39708;53.210;6.948;2022-11-21T05:04:46;2.15;;;1.95;;
53799;SDS011;39708;53.210;6.948;2022-11-21T05:07:12;2.95;;;2.25;;
53799;SDS011;39708;53.210;6.948;2022-11-21T05:09:38;1.23;;;1.10;;
53799;SDS011;39708;53.210;6.948;2022-11-21T05:12:04;2.17;;;1.75;;
53799;SDS011;39708;53.210;6.948;2022-11-21T05:14:49;2.10;;;1.08;;
53799;SDS011;39708;53.210;6.948;2022-11-21T05:17:15;1.60;;;1.02;;
53799;SDS011;39708;53.210;6.948;2022-11-21T05:19:41;1.75;;;1.65;;
53799;SDS011;39708;53.210;6.948;2022-11-21T05:22:07;2.40;;;1.92;;
53799;SDS011;39708;53.210;6.948;2022-11-21T05:24:32;2.00;;;1.90;;
53799;SDS011;39708;53.210;6.948;2022-11-21T05:26:58;1.55;;;1.23;;
53799;SDS011;39708;53.210;6.948;2022-11-21T05:29:23;1.42;;;1.30;;
53799;SDS011;39708;53.210;6.948;2022-11-21T05:31:49;0.85;;;0.85;;
53799;SDS011;39708;53.210;6.948;2022-11-21T05:34:14;0.65;;;0.65;;
53799;SDS011;39708;53.210;6.948;2022-11-21T05:36:40;0.60;;;0.60;;
53799;SDS011;39708;53.210;6.948;2022-11-21T05:39:06;1.63;;;1.45;;
53799;SDS011;39708;53.210;6.948;2022-11-21T05:41:31;11.73;;;1.85;;
53799;SDS011;39708;53.210;6.948;2022-11-21T05:43:57;1.55;;;1.48;;
53799;SDS011;39708;53.210;6.948;2022-11-21T05:46:23;2.72;;;2.47;;
53799;SDS011;39708;53.210;6.948;2022-11-21T05:48:50;1.77;;;1.52;;
53799;SDS011;39708;53.210;6.948;2022-11-21T05:51:17;0.30;;;0.30;;
53799;SDS011;39708;53.210;6.948;2022-11-21T05:53:43;2.40;;;1.27;;
53799;SDS011;39708;53.210;6.948;2022-11-21T05:56:10;1.38;;;1.27;;
53799;SDS011;39708;53.210;6.948;2022-11-21T05:58:38;1.75;;;1.45;;
53799;SDS011;39708;53.210;6.948;2022-11-21T06:01:04;8.43;;;2.10;;
53799;SDS011;39708;53.210;6.948;2022-11-21T06:03:35;2.50;;;1.75;;
53799;SDS011;39708;53.210;6.948;2022-11-21T06:06:04;2.10;;;1.77;;
53799;SDS011;39708;53.210;6.948;2022-11-21T06:09:03;2.63;;;1.30;;
53799;SDS011;39708;53.210;6.948;2022-11-21T06:11:22;2.53;;;1.85;;
53799;SDS011;39708;53.210;6.948;2022-11-21T06:13:48;1.17;;;1.08;;
53799;SDS011;39708;53.210;6.948;2022-11-21T06:16:14;2.38;;;1.30;;
53799;SDS011;39708;53.210;6.948;2022-11-21T06:18:43;5.50;;;1.73;;
53799;SDS011;39708;53.210;6.948;2022-11-21T06:23:39;2.13;;;1.58;;
53799;SDS011;39708;53.210;6.948;2022-11-21T06:26:06;2.15;;;1.50;;
53799;SDS011;39708;53.210;6.948;2022-11-21T06:28:36;1.13;;;0.85;;
53799;SDS011;39708;53.210;6.948;2022-11-21T06:31:07;1.77;;;1.17;;
53799;SDS011;39708;53.210;6.948;2022-11-21T06:33:35;6.97;;;2.92;;
53799;SDS011;39708;53.210;6.948;2022-11-21T06:36:01;4.47;;;3.25;;
53799;SDS011;39708;53.210;6.948;2022-11-21T06:38:28;2.58;;;2.38;;
53799;SDS011;39708;53.210;6.948;2022-11-21T06:40:53;8.38;;;1.67;;
53799;SDS011;39708;53.210;6.948;2022-11-21T06:43:19;3.83;;;2.25;;
53799;SDS011;39708;53.210;6.948;2022-11-21T06:45:45;4.00;;;2.03;;
53799;SDS011;39708;53.210;6.948;2022-11-21T06:48:10;2.83;;;2.58;;
53799;SDS011;39708;53.210;6.948;2022-11-21T06:50:36;3.60;;;2.53;;
53799;SDS011;39708;53.210;6.948;2022-11-21T06:53:02;2.90;;;2.67;;
53799;SDS011;39708;53.210;6.948;2022-11-21T06:55:29;3.50;;;3.20;;
53799;SDS011;39708;53.210;6.948;2022-11-21T06:57:56;2.40;;;1.17;;
53799;SDS011;39708;53.210;6.948;2022-11-21T07:00:25;2.72;;;1.50;;
53799;SDS011;39708;53.210;6.948;2022-11-21T07:02:58;1.30;;;1.08;;
53799;SDS011;39708;53.210;6.948;2022-11-21T07:05:27;2.50;;;1.50;;
53799;SDS011;39708;53.210;6.948;2022-11-21T07:08:00;2.42;;;2.25;;
53799;SDS011;39708;53.210;6.948;2022-11-21T07:10:26;2.13;;;1.75;;
53799;SDS011;39708;53.210;6.948;2022-11-21T07:12:59;1.80;;;1.52;;
53799;SDS011;39708;53.210;6.948;2022-11-21T07:15:44;2.45;;;2.22;;
53799;SDS011;39708;53.210;6.948;2022-11-21T07:18:11;3.97;;;2.97;;
53799;SDS011;39708;53.210;6.948;2022-11-21T07:20:37;3.53;;;2.95;;
53799;SDS011;39708;53.210;6.948;2022-11-21T07:23:04;1.13;;;1.13;;
53799;SDS011;39708;53.210;6.948;2022-11-21T07:25:30;2.17;;;1.77;;
53799;SDS011;39708;53.210;6.948;2022-11-21T07:28:02;2.70;;;1.98;;
53799;SDS011;39708;53.210;6.948;2022-11-21T07:30:28;4.03;;;1.65;;
53799;SDS011;39708;53.210;6.948;2022-11-21T07:32:55;2.92;;;2.63;;
53799;SDS011;39708;53.210;6.948;2022-11-21T07:35:24;2.90;;;2.67;;
53799;SDS011;39708;53.210;6.948;2022-11-21T07:37:51;2.95;;;2.70;;
53799;SDS011;39708;53.210;6.948;2022-11-21T07:40:17;3.60;;;1.33;;
53799;SDS011;39708;53.210;6.948;2022-11-21T07:42:43;4.35;;;1.73;;
53799;SDS011;39708;53.210;6.948;2022-11-21T07:45:09;3.70;;;3.40;;
53799;SDS011;39708;53.210;6.948;2022-11-21T07:47:35;3.63;;;1.63;;
53799;SDS011;39708;53.210;6.948;2022-11-21T07:50:00;2.70;;;2.20;;
53799;SDS011;39708;53.210;6.948;2022-11-21T07:52:26;6.38;;;4.28;;
53799;SDS011;39708;53.210;6.948;2022-11-21T07:54:54;1.63;;;1.55;;
53799;SDS011;39708;53.210;6.948;2022-11-21T07:57:20;2.03;;;1.52;;
53799;SDS011;39708;53.210;6.948;2022-11-21T07:59:46;2.35;;;2.25;;
53799;SDS011;39708;53.210;6.948;2022-11-21T08:02:22;4.70;;;2.58;;
53799;SDS011;39708;53.210;6.948;2022-11-21T08:04:52;4.43;;;2.58;;
53799;SDS011;39708;53.210;6.948;2022-11-21T08:07:18;3.30;;;1.85;;
53799;SDS011;39708;53.210;6.948;2022-11-21T08:09:46;1.92;;;1.35;;
53799;SDS011;39708;53.210;6.948;2022-11-21T08:12:12;3.45;;;2.63;;
53799;SDS011;39708;53.210;6.948;2022-11-21T08:14:38;2.40;;;2.20;;
53799;SDS011;39708;53.210;6.948;2022-11-21T08:17:04;3.08;;;2.42;;
53799;SDS011;39708;53.210;6.948;2022-11-21T08:19:31;2.47;;;2.25;;
53799;SDS011;39708;53.210;6.948;2022-11-21T08:21:57;6.07;;;2.05;;
53799;SDS011;39708;53.210;6.948;2022-11-21T08:24:22;1.60;;;1.50;;
53799;SDS011;39708;53.210;6.948;2022-11-21T08:26:48;3.45;;;2.13;;
53799;SDS011;39708;53.210;6.948;2022-11-21T08:29:14;2.95;;;2.72;;
53799;SDS011;39708;53.210;6.948;2022-11-21T08:31:41;3.42;;;1.50;;
53799;SDS011;39708;53.210;6.948;2022-11-21T08:34:07;2.40;;;2.20;;
53799;SDS011;39708;53.210;6.948;2022-11-21T08:36:33;2.97;;;2.78;;
53799;SDS011;39708;53.210;6.948;2022-11-21T08:38:59;2.05;;;1.20;;
53799;SDS011;39708;53.210;6.948;2022-11-21T08:41:24;4.65;;;2.58;;
53799;SDS011;39708;53.210;6.948;2022-11-21T08:44:09;2.97;;;2.22;;
53799;SDS011;39708;53.210;6.948;2022-11-21T08:46:35;2.90;;;2.35;;
53799;SDS011;39708;53.210;6.948;2022-11-21T08:49:03;2.97;;;1.52;;
53799;SDS011;39708;53.210;6.948;2022-11-21T08:51:32;5.32;;;1.17;;
53799;SDS011;39708;53.210;6.948;2022-11-21T08:53:59;3.20;;;1.83;;
53799;SDS011;39708;53.210;6.948;2022-11-21T08:56:25;5.13;;;2.15;;
53799;SDS011;39708;53.210;6.948;2022-11-21T08:58:50;2.97;;;2.30;;
53799;SDS011;39708;53.210;6.948;2022-11-21T09:01:16;2.15;;;1.98;;
53799;SDS011;39708;53.210;6.948;2022-11-21T09:03:42;19.30;;;3.25;;
53799;SDS011;39708;53.210;6.948;2022-11-21T09:06:07;5.35;;;2.97;;
53799;SDS011;39708;53.210;6.948;2022-11-21T09:08:33;3.72;;;3.33;;
53799;SDS011;39708;53.210;6.948;2022-11-21T09:11:05;4.25;;;2.90;;
53799;SDS011;39708;53.210;6.948;2022-11-21T09:13:33;2.03;;;1.83;;
53799;SDS011;39708;53.210;6.948;2022-11-21T09:15:59;5.68;;;3.42;;
53799;SDS011;39708;53.210;6.948;2022-11-21T09:18:44;3.63;;;2.35;;
53799;SDS011;39708;53.210;6.948;2022-11-21T09:21:13;5.43;;;4.18;;
53799;SDS011;39708;53.210;6.948;2022-11-21T09:23:43;5.70;;;2.80;;
53799;SDS011;39708;53.210;6.948;2022-11-21T09:26:09;4.63;;;2.42;;
53799;SDS011;39708;53.210;6.948;2022-11-21T09:28:34;2.28;;;2.08;;
53799;SDS011;39708;53.210;6.948;2022-11-21T09:31:04;2.75;;;1.67;;
53799;SDS011;39708;53.210;6.948;2022-11-21T09:33:29;3.78;;;2.80;;
53799;SDS011;39708;53.210;6.948;2022-11-21T09:35:59;6.72;;;0.95;;
53799;SDS011;39708;53.210;6.948;2022-11-21T09:38:25;4.75;;;2.15;;
53799;SDS011;39708;53.210;6.948;2022-11-21T09:40:53;6.70;;;2.30;;
53799;SDS011;39708;53.210;6.948;2022-11-21T09:45:50;2.17;;;0.57;;
53799;SDS011;39708;53.210;6.948;2022-11-21T09:48:23;6.88;;;2.08;;
53799;SDS011;39708;53.210;6.948;2022-11-21T09:50:54;2.33;;;2.22;;
53799;SDS011;39708;53.210;6.948;2022-11-21T09:53:28;1.08;;;0.80;;
53799;SDS011;39708;53.210;6.948;2022-11-21T09:55:58;7.32;;;2.45;;
53799;SDS011;39708;53.210;6.948;2022-11-21T09:58:30;2.92;;;1.15;;
53799;SDS011;39708;53.210;6.948;2022-11-21T10:01:01;3.65;;;2.33;;
53799;SDS011;39708;53.210;6.948;2022-11-21T10:03:31;4.13;;;2.88;;
53799;SDS011;39708;53.210;6.948;2022-11-21T10:06:10;1.30;;;1.00;;
53799;SDS011;39708;53.210;6.948;2022-11-21T10:22:59;5.18;;;1.35;;
53799;SDS011;39708;53.210;6.948;2022-11-21T10:25:46;2.72;;;2.22;;
53799;SDS011;39708;53.210;6.948;2022-11-21T10:28:32;0.88;;;0.88;;
53799;SDS011;39708;53.210;6.948;2022-11-21T10:31:09;4.78;;;2.97;;
53799;SDS011;39708;53.210;6.948;2022-11-21T10:33:37;1.08;;;1.08;;
53799;SDS011;39708;53.210;6.948;2022-11-21T10:36:05;1.35;;;1.13;;
53799;SDS011;39708;53.210;6.948;2022-11-21T10:38:45;2.88;;;1.73;;
53799;SDS011;39708;53.210;6.948;2022-11-21T10:41:37;1.27;;;1.17;;
53799;SDS011;39708;53.210;6.948;2022-11-21T10:44:08;1.33;;;1.23;;
53799;SDS011;39708;53.210;6.948;2022-11-21T10:47:10;1.85;;;1.38;;
53799;SDS011;39708;53.210;6.948;2022-11-21T10:52:35;2.30;;;2.20;;
53799;SDS011;39708;53.210;6.948;2022-11-21T10:57:39;7.97;;;1.77;;
53799;SDS011;39708;53.210;6.948;2022-11-21T11:02:37;1.33;;;0.55;;
53799;SDS011;39708;53.210;6.948;2022-11-21T11:07:42;0.28;;;0.28;;
53799;SDS011;39708;53.210;6.948;2022-11-21T11:10:37;1.88;;;1.25;;
53799;SDS011;39708;53.210;6.948;2022-11-21T11:13:17;1.05;;;1.00;;
53799;SDS011;39708;53.210;6.948;2022-11-21T11:15:57;1.05;;;0.95;;
53799;SDS011;39708;53.210;6.948;2022-11-21T11:18:36;2.65;;;1.02;;
53799;SDS011;39708;53.210;6.948;2022-11-21T11:21:24;0.55;;;0.55;;
53799;SDS011;39708;53.210;6.948;2022-11-21T11:24:40;1.75;;;0.98;;
53799;SDS011;39708;53.210;6.948;2022-11-21T11:29:14;2.00;;;1.75;;
53799;SDS011;39708;53.210;6.948;2022-11-21T11:34:21;0.30;;;0.30;;
53799;SDS011;39708;53.210;6.948;2022-11-21T11:48:40;4.20;;;1.27;;
53799;SDS011;39708;53.210;6.948;2022-11-21T11:51:19;0.98;;;0.65;;
53799;SDS011;39708;53.210;6.948;2022-11-21T11:53:51;1.02;;;1.00;;
53799;SDS011;39708;53.210;6.948;2022-11-21T11:59:02;0.35;;;0.35;;
53799;SDS011;39708;53.210;6.948;2022-11-21T12:01:52;0.77;;;0.77;;
53799;SDS011;39708;53.210;6.948;2022-11-21T12:04:24;1.27;;;1.27;;
53799;SDS011;39708;53.210;6.948;2022-11-21T12:07:08;0.00;;;0.00;;
53799;SDS011;39708;53.210;6.948;2022-11-21T12:12:25;0.98;;;0.77;;
53799;SDS011;39708;53.210;6.948;2022-11-21T12:23:55;2.67;;;1.02;;
53799;SDS011;39708;53.210;6.948;2022-11-21T12:29:15;2.25;;;0.65;;
53799;SDS011;39708;53.210;6.948;2022-11-21T12:40:27;0.38;;;0.20;;
53799;SDS011;39708;53.210;6.948;2022-11-21T12:46:09;0.10;;;0.10;;
53799;SDS011;39708;53.210;6.948;2022-11-21T12:57:14;0.00;;;0.00;;
53799;SDS011;39708;53.210;6.948;2022-11-21T13:02:40;0.08;;;0.03;;
53799;SDS011;39708;53.210;6.948;2022-11-21T13:05:11;0.55;;;0.55;;
53799;SDS011;39708;53.210;6.948;2022-11-21T13:07:40;0.30;;;0.25;;
53799;SDS011;39708;53.210;6.948;2022-11-21T13:10:10;0.43;;;0.28;;
53799;SDS011;39708;53.210;6.948;2022-11-21T13:12:48;1.25;;;1.15;;
53799;SDS011;39708;53.210;6.948;2022-11-21T13:15:25;0.32;;;0.32;;
53799;SDS011;39708;53.210;6.948;2022-11-21T13:18:04;0.00;;;0.00;;
53799;SDS011;39708;53.210;6.948;2022-11-21T13:20:45;0.22;;;0.22;;
53799;SDS011;39708;53.210;6.948;2022-11-21T13:25:56;0.10;;;0.10;;
53799;SDS011;39708;53.210;6.948;2022-11-21T13:28:22;0.47;;;0.47;;
53799;SDS011;39708;53.210;6.948;2022-11-21T13:30:56;0.08;;;0.08;;
53799;SDS011;39708;53.210;6.948;2022-11-21T13:35:59;1.63;;;1.52;;
53799;SDS011;39708;53.210;6.948;2022-11-21T13:38:24;0.30;;;0.30;;
53799;SDS011;39708;53.210;6.948;2022-11-21T13:40:50;0.57;;;0.57;;
53799;SDS011;39708;53.210;6.948;2022-11-21T13:43:34;0.85;;;0.20;;
53799;SDS011;39708;53.210;6.948;2022-11-21T13:46:00;0.63;;;0.57;;
53799;SDS011;39708;53.210;6.948;2022-11-21T13:53:41;0.10;;;0.10;;
53799;SDS011;39708;53.210;6.948;2022-11-21T14:07:25;1.75;;;0.60;;
53799;SDS011;39708;53.210;6.948;2022-11-21T14:09:54;0.13;;;0.13;;
53799;SDS011;39708;53.210;6.948;2022-11-21T14:12:33;3.53;;;1.00;;
53799;SDS011;39708;53.210;6.948;2022-11-21T14:19:56;0.70;;;0.70;;
53799;SDS011;39708;53.210;6.948;2022-11-21T14:22:38;0.00;;;0.00;;
53799;SDS011;39708;53.210;6.948;2022-11-21T14:25:07;0.50;;;0.47;;
53799;SDS011;39708;53.210;6.948;2022-11-21T14:27:38;1.13;;;1.02;;
53799;SDS011;39708;53.210;6.948;2022-11-21T14:30:05;0.60;;;0.60;;
53799;SDS011;39708;53.210;6.948;2022-11-21T14:32:49;1.25;;;1.05;;
53799;SDS011;39708;53.210;6.948;2022-11-21T14:35:20;0.35;;;0.35;;
53799;SDS011;39708;53.210;6.948;2022-11-21T14:37:47;1.55;;;1.45;;
53799;SDS011;39708;53.210;6.948;2022-11-21T14:40:21;0.80;;;0.73;;
53799;SDS011;39708;53.210;6.948;2022-11-21T14:42:48;0.55;;;0.55;;
53799;SDS011;39708;53.210;6.948;2022-11-21T14:45:18;0.65;;;0.45;;
53799;SDS011;39708;53.210;6.948;2022-11-21T14:47:51;0.00;;;0.00;;
53799;SDS011;39708;53.210;6.948;2022-11-21T14:50:21;7.53;;;1.02;;
53799;SDS011;39708;53.210;6.948;2022-11-21T14:52:52;0.98;;;0.13;;
53799;SDS011;39708;53.210;6.948;2022-11-21T14:55:28;0.20;;;0.17;;
53799;SDS011;39708;53.210;6.948;2022-11-21T14:57:56;0.20;;;0.20;;
53799;SDS011;39708;53.210;6.948;2022-11-21T15:00:25;0.40;;;0.40;;
53799;SDS011;39708;53.210;6.948;2022-11-21T15:02:53;0.88;;;0.52;;
53799;SDS011;39708;53.210;6.948;2022-11-21T15:05:21;0.38;;;0.38;;
53799;SDS011;39708;53.210;6.948;2022-11-21T15:07:53;0.55;;;0.55;;
53799;SDS011;39708;53.210;6.948;2022-11-21T15:10:19;1.75;;;0.98;;
53799;SDS011;39708;53.210;6.948;2022-11-21T15:18:04;0.20;;;0.20;;
53799;SDS011;39708;53.210;6.948;2022-11-21T15:20:32;2.67;;;1.15;;
53799;SDS011;39708;53.210;6.948;2022-11-21T15:22:58;0.70;;;0.52;;
53799;SDS011;39708;53.210;6.948;2022-11-21T15:25:29;2.70;;;1.15;;
53799;SDS011;39708;53.210;6.948;2022-11-21T15:28:08;1.15;;;0.82;;
53799;SDS011;39708;53.210;6.948;2022-11-21T15:30:39;1.35;;;1.08;;
53799;SDS011;39708;53.210;6.948;2022-11-21T15:38:13;0.65;;;0.65;;
53799;SDS011;39708;53.210;6.948;2022-11-21T15:41:21;2.85;;;0.93;;
53799;SDS011;39708;53.210;6.948;2022-11-21T15:43:53;0.55;;;0.55;;
53799;SDS011;39708;53.210;6.948;2022-11-21T15:46:23;3.65;;;1.50;;
53799;SDS011;39708;53.210;6.948;2022-11-21T15:48:55;0.20;;;0.15;;
53799;SDS011;39708;53.210;6.948;2022-11-21T15:51:26;0.85;;;0.73;;
53799;SDS011;39708;53.210;6.948;2022-11-21T15:53:59;2.97;;;1.73;;
53799;SDS011;39708;53.210;6.948;2022-11-21T15:56:25;1.55;;;0.43;;
53799;SDS011;39708;53.210;6.948;2022-11-21T15:58:51;0.82;;;0.82;;
53799;SDS011;39708;53.210;6.948;2022-11-21T16:01:21;0.43;;;0.43;;
53799;SDS011;39708;53.210;6.948;2022-11-21T16:04:12;0.45;;;0.45;;
53799;SDS011;39708;53.210;6.948;2022-11-21T16:06:37;0.05;;;0.05;;
53799;SDS011;39708;53.210;6.948;2022-11-21T16:09:03;0.32;;;0.32;;
53799;SDS011;39708;53.210;6.948;2022-11-21T16:11:33;1.42;;;1.25;;
53799;SDS011;39708;53.210;6.948;2022-11-21T16:14:02;0.75;;;0.75;;
53799;SDS011;39708;53.210;6.948;2022-11-21T16:16:30;0.00;;;0.00;;
53799;SDS011;39708;53.210;6.948;2022-11-21T16:18:58;0.00;;;0.00;;
53799;SDS011;39708;53.210;6.948;2022-11-21T16:21:24;1.02;;;0.52;;
53799;SDS011;39708;53.210;6.948;2022-11-21T16:23:50;1.45;;;1.35;;
53799;SDS011;39708;53.210;6.948;2022-11-21T16:26:16;1.27;;;0.65;;
53799;SDS011;39708;53.210;6.948;2022-11-21T16:28:43;0.85;;;0.57;;
53799;SDS011;39708;53.210;6.948;2022-11-21T16:31:28;0.10;;;0.10;;
53799;SDS011;39708;53.210;6.948;2022-11-21T16:33:54;1.15;;;1.02;;
53799;SDS011;39708;53.210;6.948;2022-11-21T16:36:22;1.77;;;1.67;;
53799;SDS011;39708;53.210;6.948;2022-11-21T16:38:52;0.38;;;0.38;;
53799;SDS011;39708;53.210;6.948;2022-11-21T16:41:19;3.63;;;0.60;;
53799;SDS011;39708;53.210;6.948;2022-11-21T16:43:55;0.32;;;0.32;;
53799;SDS011;39708;53.210;6.948;2022-11-21T16:46:22;0.55;;;0.55;;
53799;SDS011;39708;53.210;6.948;2022-11-21T16:48:50;0.43;;;0.13;;
53799;SDS011;39708;53.210;6.948;2022-11-21T16:51:30;0.73;;;0.73;;
53799;SDS011;39708;53.210;6.948;2022-11-21T16:53:56;0.30;;;0.30;;
53799;SDS011;39708;53.210;6.948;2022-11-21T16:56:22;0.75;;;0.75;;
53799;SDS011;39708;53.210;6.948;2022-11-21T16:58:47;4.03;;;2.20;;
53799;SDS011;39708;53.210;6.948;2022-11-21T17:01:19;0.10;;;0.10;;
53799;SDS011;39708;53.210;6.948;2022-11-21T17:03:52;1.33;;;0.50;;
53799;SDS011;39708;53.210;6.948;2022-11-21T17:06:19;0.20;;;0.20;;
53799;SDS011;39708;53.210;6.948;2022-11-21T17:08:46;0.28;;;0.17;;
53799;SDS011;39708;53.210;6.948;2022-11-21T17:11:18;4.50;;;3.30;;